This is the latest recevied weather packets stored in our database for station/object AD4CG. If no packets are shown the sender has not sent any weather packets the latest 10 day(s).
| Time | Temp. | Humidity | Pressure | Rain* | Wind** | Luminosity | Snow |
|---|---|---|---|---|---|---|---|
| 1777667053 | 11.67° C | 100% | 1014.2 hPa | 0 mm | - | - | - |
| 1777665965 | 11.67° C | 100% | 1014.6 hPa | 0 mm | - | - | - |
| 1777663773 | 11.67° C | 100% | 1015.2 hPa | 0 mm | - | - | - |
| 1777663450 | 11.67° C | 100% | 1015.6 hPa | 0 mm | - | - | - |
| 1777662821 | 11.67° C | 100% | 1015.9 hPa | 0 mm | - | - | - |
| 1777662505 | 11.67° C | 100% | 1015.2 hPa | 0 mm | - | - | - |
| 1777661564 | 11.67° C | 96% | 1015.6 hPa | 0 mm | - | - | - |
| 1777658120 | 12.22° C | 82% | 1016.6 hPa | 0 mm | - | - | - |
| 1777657178 | 12.22° C | 81% | 1015.9 hPa | 0 mm | - | - | - |
| 1777652481 | 12.78° C | 74% | 1016.6 hPa | 0 mm | - | - | - |
| 1777652165 | 13.33° C | 72% | 1016.3 hPa | 0 mm | - | - | - |
| 1777651222 | 12.78° C | 78% | 1016.3 hPa | 0 mm | - | - | - |
| 1777649019 | 11.67° C | 87% | 1016.9 hPa | 0 mm | - | - | - |
| 1777634635 | 11.67° C | 75% | 1016.3 hPa | 0 mm | - | - | - |
| 1777632387 | 12.22° C | 66% | 1015.6 hPa | 0 mm | - | - | - |
| 1777632060 | 12.22° C | 67% | 1015.6 hPa | 0 mm | - | - | - |
| 1777631409 | 12.22° C | 66% | 1015.6 hPa | 0 mm | - | - | - |
| 1777626359 | 12.78° C | 69% | 1015.2 hPa | 0 mm | - | - | - |
| 1777624465 | 13.33° C | 65% | 1015.2 hPa | 0 mm | - | - | - |
| 1777620396 | 13.89° C | 64% | 1014.2 hPa | 0 mm | - | - | - |
| 1777617892 | 14.44° C | 63% | 1014.2 hPa | 0 mm | - | - | - |
| 1777617576 | 14.44° C | 64% | 1014.2 hPa | 0 mm | - | - | - |
| 1777616010 | 15° C | 60% | 1014.2 hPa | 0 mm | - | - | - |
| 1777615380 | 15.56° C | 61% | 1014.2 hPa | 0 mm | - | - | - |
| 1777611947 | 16.11° C | 64% | 1013.9 hPa | 0 mm | - | - | - |
* Rain latest hour (hover to see other rain measurements)
** Current wind speed in m/s (hover to see current wind gust speed)